Amunt
Inicio > meteoXarxa
Fes-te'n soci

METEOXARXA

Almenara
Ubicació
Comarca la Plana Baixa
Altitud (msnm) 20
Posició geogràfica 39° 45' 2.16" N, 00° 13' 31.80" W
Model Davis Vantage Pro2
Presa de dades
Font de les dades El temps. Almenara
Estadístiques. Resum
Data Temperatura (ºC) Humitat (%) Pressió (hPa) Vent (km/h) Precipit. (mm)
Mínima Mitjana Màxima Mínima Mitjana Màxima Mínima Mitjana Màxima Predom. Mitjana Ràfega màxima Total Dies de pluja
Mínima Mitjana Màxima Mínima Mitjana Màxima
Últimes dades diàries
27-03-2017 11,1     15,4     19,8 WNW 7,1 30,6 2,2  
26-03-2017 8,4     12,7     17,0 ENE 7,1 29,0 0,0  
25-03-2017 6,1     12,5     18,9 SW 9,7 49,9 0,0  
24-03-2017 8,1     11,2     14,3 WNW 7,6 30,6 0,0  
23-03-2017 9,3     13,4     17,6 W 11,9 38,6 0,0  
22-03-2017 10,2     15,6     21,0 SW 9,8 43,5 0,0  
21-03-2017 9,4     13,3     17,2 E 4,0 22,5 0,2  
20-03-2017 10,4     14,5     18,5 N 4,7 19,3 0,0  
19-03-2017 10,4     14,3     18,1 NW 3,9 16,1 0,0  
18-03-2017 6,7     12,9     19,1 ESE 4,3 24,1 0,0  
17-03-2017 7,5     12,3     17,1 WNW 5,6 19,3 0,0  
16-03-2017 8,3     13,1     17,9 WNW 4,7 17,7 0,0  
15-03-2017 12,1     15,1     18,1 ENE 8,4 35,4 0,0  
14-03-2017 12,9     15,6     18,3 ENE 9,2 45,1 0,0  
13-03-2017 8,5     11,8     15,2 NE 11,3 46,7 30,4  
12-03-2017 10,2     15,3     20,4 NNW 5,1 35,4 4,6  
11-03-2017 10,7     14,2     17,8 NNW 2,9 16,1 0,0  
10-03-2017 13,9     18,6     23,3 NW 4,0 20,9 0,0  
09-03-2017 11,4     19,2     26,9 NW 3,9 24,1 0,0  
08-03-2017 12,7     16,8     20,8 WNW 5,8 38,6 0,0  
07-03-2017 14,9     20,8     26,6 WNW 13,7 51,5 0,0  
06-03-2017 12,5     19,3     26,1 WNW 9,8 43,5 0,0  
05-03-2017 7,8     15,2     22,7 WNW 7,4 29,0 0,0  
04-03-2017 8,2     11,7     15,2 WSW 12,7 51,5 0,2  
03-03-2017 8,9     11,7     14,5 WNW 6,3 56,3 5,8  
02-03-2017 9,1     13,3     17,5 ESE 3,9 19,3 0,0  
01-03-2017 8,7     13,4     18,1 ESE 4,8 24,1 0,0  
28-02-2017 11,2     15,2     19,2 WNW 6,4 33,8 0,0  
27-02-2017 7,6     12,0     16,4 WNW 4,0 24,1 0,0  
26-02-2017 8,3     12,3     16,3 ESE 4,0 17,7 0,0  
25-02-2017 7,7     11,4     15,2 WNW 4,5 19,3 0,0  
24-02-2017 10,5     13,1     15,6 NE 3,4 17,7 13,4  
Dades del mes en curs (actualitzades fins l'últim dia disponible)
03/2017 6,1 9,9 14,9 14,6 14,3 19,2 26,9   7,0 56,3 43,4  
Últimes dades mensuals
02/2017 6,8 9,6 16,2 13,3 13,7 17,0 23,3 8,0 74,0 25,4 5
01/2017 1,2 6,9 11,1 11,0 9,7 15,1 22,9 6,7 74,0 153,6 6
12/2016 4,7 9,3 15,6 12,6 12,0 16,6 19,0 5,3 66,0 156,6 10
11/2016 6,4 11,3 16,9 15,0 13,8 18,9 25,4 6,1 57,9 135,2 10
10/2016 12,2 17,1 19,9 20,4 19,9 23,8 27,2 4,6 33,8 15,0 10
09/2016 15,3 19,9 24,6 23,8 24,7 27,4 33,7 5,8 51,5 27,4 4
08/2016 18,7 22,0 25,7 25,6 24,9 28,7 32,2 6,2 37,0 1,6 5
07/2016 18,4 21,9 24,4 25,6 25,3 28,6 31,4 6,2 35,4 3,4 4
06/2016 14,7 19,0 22,4 22,8 22,8 26,1 32,3 6,5 54,7 0,4 1
05/2016 9,3 14,6 18,6 18,5 17,6 22,1 31,6 6,6 53,1 30,2 9
04/2016 7,3 12,2 16,2 16,1 15,5 19,9 26,7 7,0 54,7 23,2 10
03/2016 6,0 9,7 13,5 13,9 12,8 18,4 26,5 7,0 64,4 6,0 8
02/2016 3,3 9,3 19,1 13,8 12,1 18,4 24,8 8,3 86,9 7,8 7
Dades de l'any en curs (actualitzades fins l'últim dia disponible)
2017 1,2 8,7 16,2 12,9 9,7 17,0 26,9   7,2 74,0 222,4  
Últimes dades anuals
2016 3,3 14,7 25,7 18,5 12,0 22,2 33,7 6,4 86,9 407,8 82
2017 1,2 6,8 11,1 10,8 9,7 15,0 22,9 7,1 74,0 153,6 6